• Join FlightAware (Why Join?)
  • Login
  • US Flag 
04:44AM EDT


 

Airport Tracker/Info


-or-


 

Live Flight TrackerFlight Track Log ✈ EJA922 ✈ 08-Jul-2013 ✈ KBNA - KCRW

Flight Track Log - Related Links

Times and Time Zones

All times are in EDT time to prevent confusion due to time zone crossing. See the EJA922 flight status page for this flight to view local times or setup timezone preferences in your user account.

Time Position Orientation Groundspeed Altitude Reporting Facility
EDT Latitude Longitude Course Direction KTS MPH feet Rate Location/Type
06:04AM 36.1333 -86.7000 287° West 196 226 1,400  Level Nashville TRACON
06:05AM 36.1500 -86.7667 287° West 239 275 5,900 4,140 Climbing Nashville TRACON
06:06AM 36.2167 -86.7833 349° North 259 298 10,200 3,600 Climbing Nashville TRACON
06:07AM 36.2667 -86.7000 53° Northeast 328 377 13,100 2,040 Climbing Nashville TRACON
06:08AM 36.3167 -86.5833 62° Northeast 414 476 14,300 1,080 Climbing Nashville TRACON
06:10AM 36.4261 -86.3775 56° Northeast 438 504 16,200 1,080 Climbing Memphis Center
06:11AM 36.4844 -86.2481 61° Northeast 438 504 17,400 1,080 Climbing Memphis Center
06:12AM 36.5547 -86.0964 60° Northeast 441 507 18,600 1,080 Climbing Indianapolis Center
06:13AM 36.6150 -85.9608 61° Northeast 444 511 19,800 1,200 Climbing Indianapolis Center
06:14AM 36.6747 -85.8256 61° Northeast 443 510 21,000 1,140 Climbing Indianapolis Center
06:15AM 36.7303 -85.6989 61° Northeast 441 507 22,100 1,140 Climbing Indianapolis Center
06:16AM 36.7925 -85.5547 62° Northeast 443 510 23,400 1,140 Climbing Indianapolis Center
06:17AM 36.8475 -85.4275 62° Northeast 443 510 24,500 780 Climbing Indianapolis Center
06:18AM 36.9083 -85.2878 61° Northeast 454 522 25,000 240 Climbing Indianapolis Center
06:19AM 36.9708 -85.1433 62° Northeast 468 539 25,000  Level Indianapolis Center
06:20AM 37.0408 -84.9803 62° Northeast 485 558 25,000  Level Indianapolis Center
06:21AM 37.1044 -84.8297 62° Northeast 487 560 25,000  Level Indianapolis Center
06:22AM 37.1672 -84.6828 62° Northeast 480 552 25,000  Level Indianapolis Center
06:23AM 37.2306 -84.5356 62° Northeast 479 551 25,000  Level Indianapolis Center
06:24AM 37.2914 -84.3886 62° Northeast 474 545 25,000  Level Indianapolis Center
06:25AM 37.3528 -84.2431 62° Northeast 470 541 25,000  Level Indianapolis Center
06:26AM 37.4147 -84.0947 62° Northeast 474 545 25,000 -540 Level Indianapolis Center
06:27AM 37.4769 -83.9458 62° Northeast 478 550 24,000 -1,020 Descending Indianapolis Center
06:28AM 37.5394 -83.7950 62° Northeast 483 556 23,000 -540 Descending Indianapolis Center
06:29AM 37.6008 -83.6469 62° Northeast 477 549 23,000  Level Indianapolis Center
06:30AM 37.6608 -83.4994 63° Northeast 472 543 23,000  Level Indianapolis Center
06:31AM 37.7203 -83.3536 63° Northeast 467 537 23,000  Level Indianapolis Center
06:32AM 37.7811 -83.2053 63° Northeast 470 541 23,000  Level Indianapolis Center
06:33AM 37.8422 -83.0506 63° Northeast 485 558 23,000 -300 Level Indianapolis Center
06:34AM 37.9017 -82.9075 62° Northeast 465 535 22,500 -1,380 Descending Indianapolis Center
06:36AM 37.9619 -82.7547 63° Northeast 479 551 20,200 -2,340 Descending Indianapolis Center
06:37AM 38.0192 -82.6103 63° Northeast 461 531 17,800 -2,160 Descending Indianapolis Center
06:38AM 38.0753 -82.4722 63° Northeast 442 509 15,900 -2,040 Descending Indianapolis Center
06:39AM 38.1317 -82.3258 64° Northeast 437 503 13,700 -2,100 Descending Indianapolis Center
06:40AM 38.1836 -82.1928 64° Northeast 422 486 11,700 -1,560 Descending Indianapolis Center
06:41AM 38.2297 -82.0789 63° Northeast 355 409 10,600 -1,140 Descending Indianapolis Center
06:42AM 38.2561 -81.9786 71° East 314 361 9,500 -1,680 Descending Indianapolis Center
06:43AM 38.2242 -81.8861 114° Southeast 290 334 7,300 -2,460 Descending Indianapolis Center
06:44AM 38.2269 -81.7947 88° East 276 318 4,600 -2,160 Descending Indianapolis Center
06:45AM 38.2769 -81.7239 48° Northeast 271 312 3,000 -1,140 Descending Indianapolis Center
06:46AM 38.3222 -81.6656 45° Northeast 242 278 2,400 -780 Descending Indianapolis Center
06:47AM 38.3533 -81.6253 45° Northeast 193 222 1,500 -600 Descending Indianapolis Center
06:48AM 38.3839 -81.5886 43° Northeast 185 213 1,300 -240 Descending Indianapolis Center
06:50AM 38.3759 -81.5930 180° South  Level Estimated
06:57AM 38.3759 -81.5930 180° South  Level Estimated